createdAt,value
2019-03-25T00:00:24.437Z,1004.11
2019-03-25T00:01:24.452Z,1004.04
2019-03-25T00:02:24.471Z,1004.02
2019-03-25T00:03:24.539Z,1004
2019-03-25T00:04:24.508Z,1004.04
2019-03-25T00:05:24.526Z,1004
2019-03-25T00:06:24.544Z,1004
2019-03-25T00:07:24.562Z,1004.01
2019-03-25T00:08:24.580Z,1004.06
2019-03-25T00:09:24.598Z,1003.99
2019-03-25T00:10:24.617Z,1003.95
2019-03-25T00:11:24.635Z,1003.93
2019-03-25T00:12:24.654Z,1003.92
2019-03-25T00:13:24.672Z,1003.88
2019-03-25T00:14:24.689Z,1003.85
2019-03-25T00:15:24.708Z,1003.89
2019-03-25T00:16:24.726Z,1003.85
2019-03-25T00:17:24.744Z,1003.86
2019-03-25T00:18:24.763Z,1003.9
2019-03-25T00:19:24.781Z,1003.91
2019-03-25T00:20:24.799Z,1003.87
2019-03-25T00:21:24.817Z,1003.87
2019-03-25T00:22:24.836Z,1003.81
2019-03-25T00:23:24.856Z,1003.84
2019-03-25T00:24:24.878Z,1003.8
2019-03-25T00:25:24.892Z,1003.78
2019-03-25T00:26:24.910Z,1003.83
2019-03-25T00:27:24.929Z,1003.8
2019-03-25T00:28:24.945Z,1003.78
2019-03-25T00:29:24.965Z,1003.73
2019-03-25T00:30:24.983Z,1003.75
2019-03-25T00:31:24.999Z,1003.72
2019-03-25T00:32:25.019Z,1003.69
2019-03-25T00:33:25.038Z,1003.71
2019-03-25T00:34:25.055Z,1003.65
2019-03-25T00:35:25.073Z,1003.64
2019-03-25T00:36:25.093Z,1003.62
2019-03-25T00:37:25.111Z,1003.6
2019-03-25T00:38:25.130Z,1003.57
2019-03-25T00:39:25.147Z,1003.53
2019-03-25T00:40:25.166Z,1003.5
2019-03-25T00:41:25.184Z,1003.47
2019-03-25T00:42:25.201Z,1003.42
2019-03-25T00:43:25.233Z,1003.43
2019-03-25T00:44:25.239Z,1003.44
2019-03-25T00:45:25.261Z,1003.41
2019-03-25T00:46:25.274Z,1003.35
2019-03-25T00:47:25.292Z,1003.29
2019-03-25T00:48:25.313Z,1003.31
2019-03-25T00:49:25.365Z,1003.25
2019-03-25T00:50:25.348Z,1003.25
2019-03-25T00:51:25.368Z,1003.28
2019-03-25T00:52:25.388Z,1003.21
2019-03-25T00:53:25.411Z,1003.16
2019-03-25T00:54:25.422Z,1003.16
2019-03-25T00:55:25.438Z,1003.18
2019-03-25T00:56:25.458Z,1003.14
2019-03-25T00:57:25.477Z,1003.1
2019-03-25T00:58:25.494Z,1003.04
2019-03-25T00:59:25.512Z,1003.05
2019-03-25T01:00:25.530Z,1003.02
2019-03-25T01:01:25.550Z,1003
2019-03-25T01:02:25.573Z,1002.99
2019-03-25T01:03:25.585Z,1003
2019-03-25T01:04:25.621Z,1002.9
2019-03-25T01:05:25.623Z,1002.98
2019-03-25T01:06:25.641Z,1002.89
2019-03-25T01:07:25.659Z,1002.87
2019-03-25T01:08:25.675Z,1002.88
2019-03-25T01:09:25.693Z,1002.86
2019-03-25T01:10:25.714Z,1002.8
2019-03-25T01:11:25.732Z,1002.77
2019-03-25T01:12:25.750Z,1002.72
2019-03-25T01:13:25.769Z,1002.77
2019-03-25T01:14:25.786Z,1002.73
2019-03-25T01:15:25.804Z,1002.71
2019-03-25T01:16:25.823Z,1002.72
2019-03-25T01:17:25.841Z,1002.63
2019-03-25T01:18:25.858Z,1002.58
2019-03-25T01:19:25.878Z,1002.61
2019-03-25T01:20:25.986Z,1002.55
2019-03-25T01:21:25.916Z,1002.57
2019-03-25T01:22:25.931Z,1002.58
2019-03-25T01:23:25.956Z,1002.5
2019-03-25T01:24:25.969Z,1002.45
2019-03-25T01:25:25.989Z,1002.46
2019-03-25T01:26:26.005Z,1002.41
2019-03-25T01:27:26.023Z,1002.43
2019-03-25T01:28:26.042Z,1002.4
2019-03-25T01:29:26.062Z,1002.39
2019-03-25T01:30:26.077Z,1002.33
2019-03-25T01:31:26.096Z,1002.37
2019-03-25T01:32:26.115Z,1002.38
2019-03-25T01:33:26.133Z,1002.32
2019-03-25T01:34:26.151Z,1002.29
2019-03-25T01:35:26.169Z,1002.28
2019-03-25T01:36:26.189Z,1002.29
2019-03-25T01:37:26.204Z,1002.27
2019-03-25T01:38:26.225Z,1002.15
2019-03-25T01:39:26.243Z,1002.18
2019-03-25T01:40:26.262Z,1002.16
2019-03-25T01:41:26.280Z,1002.13
2019-03-25T01:42:26.297Z,1002.15
2019-03-25T01:43:26.315Z,1002.18
2019-03-25T01:44:26.334Z,1002.12
2019-03-25T01:45:26.352Z,1002.1
2019-03-25T01:46:26.369Z,1002.02
2019-03-25T01:47:26.389Z,1002.01
2019-03-25T01:48:26.405Z,1002
2019-03-25T01:49:26.424Z,1001.96
2019-03-25T01:50:26.444Z,1001.97
2019-03-25T01:51:26.463Z,1001.98
2019-03-25T01:52:26.480Z,1001.94
2019-03-25T01:53:26.499Z,1001.96
2019-03-25T01:54:26.516Z,1001.9
2019-03-25T01:55:26.538Z,1001.86
2019-03-25T01:56:26.554Z,1001.85
2019-03-25T01:57:26.573Z,1001.83
2019-03-25T01:58:26.590Z,1001.78
2019-03-25T01:59:26.607Z,1001.76
2019-03-25T02:00:26.626Z,1001.72
2019-03-25T02:01:26.645Z,1001.68
2019-03-25T02:02:26.663Z,1001.66
2019-03-25T02:03:26.682Z,1001.6
2019-03-25T02:04:26.700Z,1001.54
2019-03-25T02:05:26.717Z,1001.54
2019-03-25T02:06:26.736Z,1001.45
2019-03-25T02:07:26.754Z,1001.45
2019-03-25T02:08:26.772Z,1001.48
2019-03-25T02:09:26.790Z,1001.43
2019-03-25T02:10:26.809Z,1001.44
2019-03-25T02:11:26.827Z,1001.43
2019-03-25T02:12:26.847Z,1001.37
2019-03-25T02:13:26.864Z,1001.35
2019-03-25T02:14:26.883Z,1001.35
2019-03-25T02:15:26.904Z,1001.33
2019-03-25T02:16:26.922Z,1001.32
2019-03-25T02:17:26.938Z,1001.28
2019-03-25T02:18:26.958Z,1001.22
2019-03-25T02:19:26.975Z,1001.22
2019-03-25T02:20:27.106Z,1001.17
2019-03-25T02:21:27.011Z,1001.09
2019-03-25T02:22:27.084Z,1001.07
2019-03-25T02:23:27.049Z,1001.06
2019-03-25T02:24:27.065Z,1001.05
2019-03-25T02:25:27.083Z,1001.03
2019-03-25T02:26:27.102Z,1000.97
2019-03-25T02:27:27.121Z,1000.94
2019-03-25T02:28:27.139Z,1000.97
2019-03-25T02:29:27.157Z,1000.93
2019-03-25T02:30:27.175Z,1000.86
2019-03-25T02:31:27.197Z,1000.89
2019-03-25T02:32:27.210Z,1000.92
2019-03-25T02:33:27.230Z,1000.91
2019-03-25T02:34:27.249Z,1000.83
2019-03-25T02:35:27.266Z,1000.84
2019-03-25T02:36:27.287Z,1000.78
2019-03-25T02:37:27.303Z,1000.82
2019-03-25T02:38:27.322Z,1000.85
2019-03-25T02:39:27.339Z,1000.8
2019-03-25T02:40:27.360Z,1000.75
2019-03-25T02:41:27.375Z,1000.85
2019-03-25T02:42:27.468Z,1000.75
2019-03-25T02:43:27.412Z,1000.72
2019-03-25T02:44:27.430Z,1000.71
2019-03-25T02:45:27.448Z,1000.78
2019-03-25T02:46:27.467Z,1000.78
2019-03-25T02:47:27.484Z,1000.8
2019-03-25T02:48:27.504Z,1000.87
2019-03-25T02:49:27.527Z,1000.84
2019-03-25T02:50:27.538Z,1000.91
2019-03-25T02:51:27.558Z,1000.83
2019-03-25T02:52:27.576Z,1000.8
2019-03-25T02:53:27.594Z,1000.75
2019-03-25T02:54:27.612Z,1000.84
2019-03-25T02:55:40.474Z,1000.83
2019-03-25T02:56:27.648Z,1000.89
2019-03-25T02:57:27.666Z,1000.81
2019-03-25T02:58:27.684Z,1000.76
2019-03-25T02:59:27.711Z,1000.68
2019-03-25T03:00:27.721Z,1000.63
2019-03-25T03:01:27.753Z,1000.65
2019-03-25T03:02:27.757Z,1000.67
2019-03-25T03:03:27.775Z,1000.66
2019-03-25T03:04:27.794Z,1000.57
2019-03-25T03:05:27.812Z,1000.5
2019-03-25T03:06:27.835Z,1000.43
2019-03-25T03:07:27.867Z,1000.49
2019-03-25T03:08:27.866Z,1000.5
2019-03-25T03:09:27.883Z,1000.53
2019-03-25T03:10:27.907Z,1000.52
2019-03-25T03:11:27.920Z,1000.48
2019-03-25T03:12:27.943Z,1000.5
2019-03-25T03:13:27.961Z,1000.48
2019-03-25T03:14:27.977Z,1000.47
2019-03-25T03:15:27.993Z,1000.55
2019-03-25T03:16:28.010Z,1000.46
2019-03-25T03:17:28.029Z,1000.48
2019-03-25T03:18:28.047Z,1000.48
2019-03-25T03:19:28.063Z,1000.55
2019-03-25T03:20:28.087Z,1000.58
2019-03-25T03:21:28.101Z,1000.61
2019-03-25T03:22:28.118Z,1000.53
2019-03-25T03:23:28.137Z,1000.53
2019-03-25T03:24:28.158Z,1000.51
2019-03-25T03:25:28.176Z,1000.5
2019-03-25T03:26:28.191Z,1000.52
2019-03-25T03:27:29.830Z,1000.48
2019-03-25T03:28:28.232Z,1000.47
2019-03-25T03:29:28.246Z,1000.38
2019-03-25T03:30:28.269Z,1000.41
2019-03-25T03:31:28.282Z,1000.36
2019-03-25T03:32:28.300Z,1000.31
2019-03-25T03:33:28.387Z,1000.35
2019-03-25T03:34:28.337Z,1000.3
2019-03-25T03:35:28.385Z,1000.34
2019-03-25T03:36:28.373Z,1000.3
2019-03-25T03:37:28.392Z,1000.29
2019-03-25T03:38:28.409Z,1000.19
2019-03-25T03:39:28.427Z,1000.22
2019-03-25T03:40:28.445Z,1000.16
2019-03-25T03:41:28.461Z,1000.16
2019-03-25T03:42:28.479Z,1000.21
2019-03-25T03:43:28.500Z,1000.13
2019-03-25T03:44:28.517Z,1000.11
2019-03-25T03:45:28.536Z,1000.13
2019-03-25T03:46:28.556Z,1000.09
2019-03-25T03:47:28.574Z,1000.09
2019-03-25T03:48:28.590Z,1000.12
2019-03-25T03:49:28.609Z,1000.09
2019-03-25T03:50:28.632Z,1000.01
2019-03-25T03:51:28.645Z,1000.05
2019-03-25T03:52:28.663Z,1000.08
2019-03-25T03:53:28.681Z,1000.02
2019-03-25T03:54:28.699Z,1000.04
2019-03-25T03:55:28.717Z,1000.06
2019-03-25T03:56:28.735Z,1000.05
2019-03-25T03:57:28.753Z,1000.02
2019-03-25T03:58:28.771Z,1000.04
2019-03-25T03:59:28.788Z,1000
2019-03-25T04:00:28.807Z,1000.08
2019-03-25T04:01:28.825Z,1000.07
2019-03-25T04:02:28.845Z,1000.05
2019-03-25T04:03:28.868Z,1000.09
2019-03-25T04:04:28.880Z,999.99
2019-03-25T04:05:28.948Z,1000.06
2019-03-25T04:06:28.930Z,1000.05
2019-03-25T04:07:28.933Z,1000.01
2019-03-25T04:08:28.955Z,1000.1
2019-03-25T04:09:28.971Z,1000.1
2019-03-25T04:10:28.989Z,1000.11
2019-03-25T04:11:29.005Z,1000.06
2019-03-25T04:12:29.023Z,1000.1
2019-03-25T04:13:29.041Z,1000.06
2019-03-25T04:14:29.058Z,1000.09
2019-03-25T04:15:29.077Z,1000.13
2019-03-25T04:16:29.100Z,1000.15
2019-03-25T04:17:29.121Z,1000.15
2019-03-25T04:18:29.162Z,1000.26
2019-03-25T04:19:29.149Z,1000.26
2019-03-25T04:20:29.175Z,1000.29
2019-03-25T04:21:29.184Z,1000.31
2019-03-25T04:22:29.203Z,1000.26
2019-03-25T04:23:29.219Z,1000.35
2019-03-25T04:24:29.242Z,1000.38
2019-03-25T04:25:29.258Z,1000.39
2019-03-25T04:26:29.709Z,1000.45
2019-03-25T04:27:29.317Z,1000.42
2019-03-25T04:28:29.312Z,1000.43
2019-03-25T04:29:29.353Z,1000.48
2019-03-25T04:30:29.350Z,1000.46
2019-03-25T04:31:29.367Z,1000.5
2019-03-25T04:32:29.382Z,1000.58
2019-03-25T04:33:29.402Z,1000.56
2019-03-25T04:34:29.427Z,1000.51
2019-03-25T04:35:29.439Z,1000.53
2019-03-25T04:36:29.461Z,1000.52
2019-03-25T04:37:29.475Z,1000.55
2019-03-25T04:38:29.496Z,1000.52
2019-03-25T04:39:29.511Z,1000.51
2019-03-25T04:40:29.528Z,1000.45
2019-03-25T04:41:29.550Z,1000.51
2019-03-25T04:42:29.566Z,1000.46
2019-03-25T04:43:29.592Z,1000.54
2019-03-25T04:44:29.600Z,1000.48
2019-03-25T04:45:29.618Z,1000.47
2019-03-25T04:46:29.642Z,1000.44
2019-03-25T04:47:29.655Z,1000.46
2019-03-25T04:48:29.673Z,1000.47
2019-03-25T04:49:29.690Z,1000.5
2019-03-25T04:50:29.710Z,1000.49
2019-03-25T04:51:29.725Z,1000.54
2019-03-25T04:52:29.745Z,1000.59
2019-03-25T04:53:29.764Z,1000.52
2019-03-25T04:54:29.782Z,1000.57
2019-03-25T04:55:29.803Z,1000.55
2019-03-25T04:56:38.938Z,1000.54
2019-03-25T04:57:29.845Z,1000.53
2019-03-25T04:58:29.853Z,1000.58
2019-03-25T04:59:29.873Z,1000.58
2019-03-25T05:00:29.891Z,1000.55
2019-03-25T05:01:29.907Z,1000.54
2019-03-25T05:02:29.934Z,1000.51
2019-03-25T05:03:29.944Z,1000.56
2019-03-25T05:04:29.963Z,1000.53
2019-03-25T05:05:29.980Z,1000.63
2019-03-25T05:06:29.998Z,1000.64
2019-03-25T05:07:30.016Z,1000.68
2019-03-25T05:08:30.041Z,1000.73
2019-03-25T05:09:30.053Z,1000.69
2019-03-25T05:10:30.071Z,1000.7
2019-03-25T05:11:30.950Z,1000.7
2019-03-25T05:12:30.107Z,1000.69
2019-03-25T05:13:30.125Z,1000.66
2019-03-25T05:14:30.144Z,1000.68
2019-03-25T05:15:30.161Z,1000.6
2019-03-25T05:16:30.181Z,1000.6
2019-03-25T05:17:30.197Z,1000.66
2019-03-25T05:18:30.216Z,1000.65
2019-03-25T05:19:30.233Z,1000.65
2019-03-25T05:20:30.252Z,1000.64
2019-03-25T05:21:30.270Z,1000.68
2019-03-25T05:22:30.287Z,1000.65
2019-03-25T05:23:30.407Z,1000.65
2019-03-25T05:24:30.324Z,1000.7
2019-03-25T05:25:30.398Z,1000.74
2019-03-25T05:26:30.410Z,1000.72
2019-03-25T05:27:30.378Z,1000.72
2019-03-25T05:28:30.398Z,1000.77
2019-03-25T05:29:30.416Z,1000.75
2019-03-25T05:30:30.434Z,1000.82
2019-03-25T05:31:30.450Z,1000.78
2019-03-25T05:32:30.469Z,1000.74
2019-03-25T05:33:30.493Z,1000.77
2019-03-25T05:34:30.507Z,1000.74
2019-03-25T05:35:30.523Z,1000.74
2019-03-25T05:36:30.542Z,1000.78
2019-03-25T05:37:30.559Z,1000.77
2019-03-25T05:38:30.595Z,1000.82
2019-03-25T05:39:30.596Z,1000.79
2019-03-25T05:40:30.651Z,1000.77
2019-03-25T05:41:30.632Z,1000.76
2019-03-25T05:42:30.650Z,1000.75
2019-03-25T05:43:30.668Z,1000.73
2019-03-25T05:44:30.686Z,1000.73
2019-03-25T05:45:30.703Z,1000.71
2019-03-25T05:46:30.726Z,1000.75
2019-03-25T05:47:30.741Z,1000.69
2019-03-25T05:48:30.759Z,1000.7
2019-03-25T05:49:30.777Z,1000.75
2019-03-25T05:50:30.795Z,1000.73
2019-03-25T05:51:30.813Z,1000.78
2019-03-25T05:52:30.830Z,1000.75
2019-03-25T05:53:30.849Z,1000.8
2019-03-25T05:54:30.867Z,1000.84
2019-03-25T05:55:30.887Z,1000.84
2019-03-25T05:56:30.905Z,1000.88
2019-03-25T05:57:30.920Z,1000.83
2019-03-25T05:58:30.940Z,1000.83
2019-03-25T05:59:30.960Z,1000.98
2019-03-25T06:00:30.974Z,1000.92
2019-03-25T06:01:30.993Z,1000.97
2019-03-25T06:02:31.011Z,1000.96
2019-03-25T06:03:31.029Z,1000.84
2019-03-25T06:04:31.046Z,1000.9
2019-03-25T06:05:31.068Z,1000.93
2019-03-25T06:06:31.083Z,1000.82
2019-03-25T06:07:31.102Z,1000.85
2019-03-25T06:08:31.119Z,1000.87
2019-03-25T06:09:31.138Z,1000.83
2019-03-25T06:10:31.255Z,1000.85
2019-03-25T06:11:31.272Z,1000.84
2019-03-25T06:12:31.190Z,1000.9
2019-03-25T06:13:31.209Z,1000.83
2019-03-25T06:14:31.283Z,1000.85
2019-03-25T06:15:31.251Z,1000.84
2019-03-25T06:16:31.262Z,1000.84
2019-03-25T06:17:31.280Z,1000.85
2019-03-25T06:18:31.298Z,1000.85
2019-03-25T06:19:31.317Z,1000.86
2019-03-25T06:20:31.342Z,1000.82
2019-03-25T06:21:31.353Z,1000.85
2019-03-25T06:22:31.369Z,1000.8
2019-03-25T06:23:31.388Z,1000.77
2019-03-25T06:24:31.406Z,1000.76
2019-03-25T06:25:31.425Z,1000.78
2019-03-25T06:26:31.442Z,1000.75
2019-03-25T06:27:31.460Z,1000.76
2019-03-25T06:28:31.478Z,1000.76
2019-03-25T06:29:32.078Z,1000.72
2019-03-25T06:30:31.513Z,1000.7
2019-03-25T06:31:31.532Z,1000.69
2019-03-25T06:32:31.552Z,1000.72
2019-03-25T06:33:31.568Z,1000.76
2019-03-25T06:34:31.585Z,1000.76
2019-03-25T06:35:31.604Z,1000.75
2019-03-25T06:36:31.623Z,1000.73
2019-03-25T06:37:31.642Z,1000.81
2019-03-25T06:38:31.659Z,1000.79
2019-03-25T06:39:31.676Z,1000.8
2019-03-25T06:40:31.694Z,1000.78
2019-03-25T06:41:31.712Z,1000.8
2019-03-25T06:42:31.731Z,1000.81
2019-03-25T06:43:31.747Z,1000.8
2019-03-25T06:44:31.768Z,1000.76
2019-03-25T06:45:31.783Z,1000.75
2019-03-25T06:46:31.801Z,1000.74
2019-03-25T06:47:31.820Z,1000.75
2019-03-25T06:48:31.838Z,1000.78
2019-03-25T06:49:31.857Z,1000.77
2019-03-25T06:50:31.875Z,1000.74
2019-03-25T06:51:31.892Z,1000.72
2019-03-25T06:52:31.909Z,1000.72
2019-03-25T06:53:31.928Z,1000.73
2019-03-25T06:54:31.946Z,1000.75
2019-03-25T06:55:31.963Z,1000.72
2019-03-25T06:56:31.982Z,1000.71
2019-03-25T06:57:32.000Z,1000.75
2019-03-25T06:58:32.018Z,1000.74
2019-03-25T06:59:32.037Z,1000.81
2019-03-25T07:00:32.056Z,1000.87
2019-03-25T07:01:32.075Z,1000.88
2019-03-25T07:02:32.091Z,1000.84
2019-03-25T07:03:32.111Z,1000.78
2019-03-25T07:04:32.127Z,1000.82
2019-03-25T07:05:32.149Z,1000.81
2019-03-25T07:06:32.262Z,1000.79
2019-03-25T07:07:32.181Z,1000.77
2019-03-25T07:08:32.200Z,1000.78
2019-03-25T07:09:32.216Z,1000.79
2019-03-25T07:10:32.235Z,1000.74
2019-03-25T07:11:32.253Z,1000.81
2019-03-25T07:12:32.273Z,1000.81
2019-03-25T07:13:32.289Z,1000.8
2019-03-25T07:14:32.308Z,1000.84
2019-03-25T07:15:32.324Z,1000.8
2019-03-25T07:16:32.344Z,1000.82
2019-03-25T07:17:32.364Z,1000.83
2019-03-25T07:18:32.377Z,1000.87
2019-03-25T07:19:32.397Z,1000.79
2019-03-25T07:20:32.415Z,1000.77
2019-03-25T07:21:32.434Z,1000.77
2019-03-25T07:22:32.451Z,1000.79
2019-03-25T07:23:32.473Z,1000.8
2019-03-25T07:24:32.489Z,1000.73
2019-03-25T07:25:32.507Z,1000.73
2019-03-25T07:26:32.523Z,1000.72
2019-03-25T07:27:36.826Z,1000.73
2019-03-25T07:28:32.560Z,1000.71
2019-03-25T07:29:32.579Z,1000.71
2019-03-25T07:30:32.597Z,1000.67
2019-03-25T07:31:32.613Z,1000.64
2019-03-25T07:32:32.631Z,1000.64
2019-03-25T07:33:32.649Z,1000.7
2019-03-25T07:34:32.669Z,1000.72
2019-03-25T07:35:32.684Z,1000.67
2019-03-25T07:36:32.703Z,1000.71
2019-03-25T07:37:32.724Z,1000.69
2019-03-25T07:38:32.742Z,1000.75
2019-03-25T07:39:32.759Z,1000.71
2019-03-25T07:40:32.776Z,1000.73
2019-03-25T07:41:32.794Z,1000.75
2019-03-25T07:42:32.812Z,1000.72
2019-03-25T07:43:32.832Z,1000.71
2019-03-25T07:44:32.849Z,1000.75
2019-03-25T07:45:32.869Z,1000.83
2019-03-25T07:46:32.884Z,1000.75
2019-03-25T07:47:32.904Z,1000.78
2019-03-25T07:48:32.921Z,1000.74
2019-03-25T07:49:32.940Z,1000.75
2019-03-25T07:50:32.957Z,1000.77
2019-03-25T07:51:32.975Z,1000.8
2019-03-25T07:52:32.994Z,1000.77
2019-03-25T07:53:33.011Z,1000.77
2019-03-25T07:54:33.028Z,1000.77
2019-03-25T07:55:33.068Z,1000.77
2019-03-25T07:56:33.077Z,1000.81
2019-03-25T07:57:33.108Z,1000.74
2019-03-25T07:58:33.103Z,1000.75
2019-03-25T07:59:33.120Z,1000.76
2019-03-25T08:00:33.140Z,1000.75
2019-03-25T08:01:33.167Z,1000.76
2019-03-25T08:02:33.190Z,1000.74
2019-03-25T08:03:33.192Z,1000.71
2019-03-25T08:04:33.209Z,1000.69
2019-03-25T08:05:33.229Z,1000.67
2019-03-25T08:06:33.247Z,1000.73
2019-03-25T08:07:33.275Z,1000.7
2019-03-25T08:08:33.288Z,1000.7
2019-03-25T08:09:33.331Z,1000.7
2019-03-25T08:10:33.430Z,1000.74
2019-03-25T08:11:33.351Z,1000.68
2019-03-25T08:12:33.403Z,1000.67
2019-03-25T08:13:33.388Z,1000.65
2019-03-25T08:14:33.404Z,1000.6
2019-03-25T08:15:33.452Z,1000.6
2019-03-25T08:16:33.430Z,1000.53
2019-03-25T08:17:33.449Z,1000.56
2019-03-25T08:18:33.466Z,1000.58
2019-03-25T08:19:33.485Z,1000.53
2019-03-25T08:20:33.503Z,1000.51
2019-03-25T08:21:33.523Z,1000.52
2019-03-25T08:22:33.540Z,1000.5
2019-03-25T08:23:33.558Z,1000.51
2019-03-25T08:24:33.576Z,1000.46
2019-03-25T08:25:33.594Z,1000.44
2019-03-25T08:26:33.613Z,1000.44
2019-03-25T08:27:33.631Z,1000.42
2019-03-25T08:28:33.649Z,1000.42
2019-03-25T08:29:33.671Z,1000.43
2019-03-25T08:30:33.686Z,1000.46
2019-03-25T08:31:33.703Z,1000.4
2019-03-25T08:32:33.723Z,1000.42
2019-03-25T08:33:33.741Z,1000.38
2019-03-25T08:34:33.760Z,1000.35
2019-03-25T08:35:33.780Z,1000.34
2019-03-25T08:36:33.804Z,1000.3
2019-03-25T08:37:33.814Z,1000.22
2019-03-25T08:38:33.832Z,1000.21
2019-03-25T08:39:33.850Z,1000.17
2019-03-25T08:40:33.892Z,1000.16
2019-03-25T08:41:33.891Z,1000.18
2019-03-25T08:42:33.907Z,1000.21
2019-03-25T08:43:33.926Z,1000.31
2019-03-25T08:44:33.943Z,1000.26
2019-03-25T08:45:33.962Z,1000.3
2019-03-25T08:46:33.981Z,1000.25
2019-03-25T08:47:33.999Z,1000.29
2019-03-25T08:48:34.016Z,1000.33
2019-03-25T08:49:34.036Z,1000.29
2019-03-25T08:50:34.052Z,1000.26
2019-03-25T08:51:34.073Z,1000.24
2019-03-25T08:52:34.090Z,1000.29
2019-03-25T08:53:34.109Z,1000.25
2019-03-25T08:54:34.127Z,1000.29
2019-03-25T08:55:34.145Z,1000.33
2019-03-25T08:56:34.162Z,1000.37
2019-03-25T08:57:34.184Z,1000.37
2019-03-25T08:58:34.203Z,1000.39
2019-03-25T08:59:34.218Z,1000.45
2019-03-25T09:00:34.239Z,1000.36
2019-03-25T09:01:34.254Z,1000.44
2019-03-25T09:02:34.272Z,1000.42
2019-03-25T09:03:34.291Z,1000.41
2019-03-25T09:04:34.308Z,1000.38
2019-03-25T09:05:34.328Z,1000.32
2019-03-25T09:06:34.347Z,1000.39
2019-03-25T09:07:34.366Z,1000.45
2019-03-25T09:08:34.383Z,1000.45
2019-03-25T09:09:34.400Z,1000.46
2019-03-25T09:10:34.419Z,1000.45
2019-03-25T09:11:34.436Z,1000.49
2019-03-25T09:12:34.455Z,1000.52
2019-03-25T09:13:34.474Z,1000.48
2019-03-25T09:14:34.495Z,1000.52
2019-03-25T09:15:34.509Z,1000.53
2019-03-25T09:16:34.528Z,1000.5
2019-03-25T09:17:34.546Z,1000.57
2019-03-25T09:18:34.565Z,1000.56
2019-03-25T09:19:34.584Z,1000.58
2019-03-25T09:20:34.602Z,1000.48
2019-03-25T09:21:34.620Z,1000.5
2019-03-25T09:22:34.646Z,1000.51
2019-03-25T09:23:34.657Z,1000.52
2019-03-25T09:24:34.676Z,1000.56
2019-03-25T09:25:34.694Z,1000.58
2019-03-25T09:26:34.712Z,1000.61
2019-03-25T09:27:34.731Z,1000.66
2019-03-25T09:28:34.748Z,1000.63
2019-03-25T09:29:34.767Z,1000.64
2019-03-25T09:30:34.789Z,1000.59
2019-03-25T09:31:36.882Z,1000.58
2019-03-25T09:32:34.821Z,1000.56
2019-03-25T09:33:34.841Z,1000.47
2019-03-25T09:34:34.859Z,1000.6
2019-03-25T09:35:34.879Z,1000.6
2019-03-25T09:36:34.896Z,1000.51
2019-03-25T09:37:34.929Z,1000.58
2019-03-25T09:38:34.933Z,1000.6
2019-03-25T09:39:34.950Z,1000.67
2019-03-25T09:40:34.969Z,1000.61
2019-03-25T09:41:34.989Z,1000.64
2019-03-25T09:42:35.011Z,1000.69
2019-03-25T09:43:35.025Z,1000.69
2019-03-25T09:44:35.045Z,1000.72
2019-03-25T09:45:35.062Z,1000.66
2019-03-25T09:46:35.080Z,1000.76
2019-03-25T09:47:37.693Z,1000.74
2019-03-25T09:48:35.117Z,1000.71
2019-03-25T09:49:35.136Z,1000.71
2019-03-25T09:50:35.154Z,1000.66
2019-03-25T09:51:35.174Z,1000.63
2019-03-25T09:52:38.614Z,1000.67
2019-03-25T09:53:35.221Z,1000.6
2019-03-25T09:54:35.229Z,1000.67
2019-03-25T09:55:35.247Z,1000.64
2019-03-25T09:56:35.265Z,1000.68
2019-03-25T09:57:35.290Z,1000.68
2019-03-25T09:58:36.377Z,1000.73
2019-03-25T09:59:35.321Z,1000.79
2019-03-25T10:00:35.339Z,1000.73
2019-03-25T10:01:35.357Z,1000.71
2019-03-25T10:02:35.377Z,1000.67
2019-03-25T10:03:35.396Z,1000.68
2019-03-25T10:04:35.416Z,1000.72
2019-03-25T10:05:35.431Z,1000.8
2019-03-25T10:06:35.455Z,1000.76
2019-03-25T10:07:35.472Z,1000.68
2019-03-25T10:08:35.489Z,1000.69
2019-03-25T10:09:35.508Z,1000.66
2019-03-25T10:10:35.526Z,1000.74
2019-03-25T10:11:35.548Z,1000.78
2019-03-25T10:12:35.565Z,1000.84
2019-03-25T10:13:35.582Z,1000.87
2019-03-25T10:14:35.601Z,1000.83
2019-03-25T10:15:35.619Z,1000.82
2019-03-25T10:16:35.639Z,1000.9
2019-03-25T10:17:35.656Z,1000.9
2019-03-25T10:18:35.676Z,1000.84
2019-03-25T10:19:35.696Z,1000.84
2019-03-25T10:20:35.714Z,1000.87
2019-03-25T10:21:35.732Z,1000.93
2019-03-25T10:22:35.752Z,1000.9
2019-03-25T10:23:35.771Z,1000.96
2019-03-25T10:24:35.788Z,1000.91
2019-03-25T10:25:35.812Z,1000.94
2019-03-25T10:26:35.831Z,1000.94
2019-03-25T10:27:35.845Z,1001
2019-03-25T10:28:47.448Z,1000.96
2019-03-25T10:29:35.883Z,1001.03
2019-03-25T10:30:35.901Z,1001.09
2019-03-25T10:31:35.924Z,1001.09
2019-03-25T10:32:35.939Z,1000.98
2019-03-25T10:33:35.959Z,1001.06
2019-03-25T10:34:35.976Z,1001.05
2019-03-25T10:35:35.996Z,1001.06
2019-03-25T10:36:36.015Z,1001.07
2019-03-25T10:37:36.034Z,1001.12
2019-03-25T10:38:36.053Z,1001.15
2019-03-25T10:39:36.073Z,1001.14
2019-03-25T10:40:36.090Z,1001.21
2019-03-25T10:41:38.368Z,1001.25
2019-03-25T10:42:36.128Z,1001.23
2019-03-25T10:43:36.147Z,1001.12
2019-03-25T10:44:36.166Z,1001.16
2019-03-25T10:45:36.184Z,1001.13
2019-03-25T10:46:36.203Z,1001.14
2019-03-25T10:47:36.221Z,1001.12
2019-03-25T10:48:36.241Z,1001.14
2019-03-25T10:49:36.261Z,1001.12
2019-03-25T10:50:36.280Z,1001.19
2019-03-25T10:51:36.297Z,1001.18
2019-03-25T10:52:36.317Z,1001.06
2019-03-25T10:53:36.398Z,1001.08
2019-03-25T10:54:36.381Z,1001.07
2019-03-25T10:55:36.374Z,1001.03
2019-03-25T10:56:36.390Z,1001.1
2019-03-25T10:57:36.411Z,1000.99
2019-03-25T10:58:36.431Z,1001.08
2019-03-25T10:59:36.448Z,1001.07
2019-03-25T11:00:36.467Z,1001.13
2019-03-25T11:01:36.486Z,1001.14
2019-03-25T11:02:36.508Z,1001.18
2019-03-25T11:03:36.524Z,1001.25
2019-03-25T11:04:36.544Z,1001.26
2019-03-25T11:05:36.561Z,1001.26
2019-03-25T11:06:36.581Z,1001.32
2019-03-25T11:07:36.640Z,1001.23
2019-03-25T11:08:36.624Z,1001.3
2019-03-25T11:09:36.637Z,1001.22
2019-03-25T11:10:36.658Z,1001.22
2019-03-25T11:11:36.675Z,1001.26
2019-03-25T11:12:36.695Z,1001.26
2019-03-25T11:13:36.712Z,1001.23
2019-03-25T11:14:36.731Z,1001.3
2019-03-25T11:15:36.749Z,1001.14
2019-03-25T11:16:36.768Z,1001.27
2019-03-25T11:17:36.791Z,1001.23
2019-03-25T11:18:36.807Z,1001.18
2019-03-25T11:19:36.828Z,1001.2
2019-03-25T11:20:36.846Z,1001.19
2019-03-25T11:21:36.864Z,1001.17
2019-03-25T11:22:36.883Z,1001.22
2019-03-25T11:23:36.901Z,1001.31
2019-03-25T11:24:36.922Z,1001.27
2019-03-25T11:25:36.938Z,1001.28
2019-03-25T11:26:36.959Z,1001.35
2019-03-25T11:27:36.977Z,1001.35
2019-03-25T11:28:36.997Z,1001.4
2019-03-25T11:29:37.015Z,1001.45
2019-03-25T11:30:37.036Z,1001.43
2019-03-25T11:31:37.055Z,1001.42
2019-03-25T11:32:37.073Z,1001.46
2019-03-25T11:33:37.136Z,1001.44
2019-03-25T11:34:37.110Z,1001.52
2019-03-25T11:35:37.133Z,1001.54
2019-03-25T11:36:37.147Z,1001.66
2019-03-25T11:37:37.169Z,1001.68
2019-03-25T11:38:37.188Z,1001.81
2019-03-25T11:39:37.206Z,1001.81
2019-03-25T11:40:37.225Z,1001.8
2019-03-25T11:41:37.243Z,1001.9
2019-03-25T11:42:37.263Z,1001.88
2019-03-25T11:43:37.284Z,1001.82
2019-03-25T11:44:37.301Z,1001.96
2019-03-25T11:45:37.321Z,1001.89
2019-03-25T11:46:37.339Z,1002.07
2019-03-25T11:47:37.358Z,1001.98
2019-03-25T11:48:37.377Z,1001.9
2019-03-25T11:49:37.400Z,1001.91
2019-03-25T11:50:37.415Z,1001.87
2019-03-25T11:51:37.434Z,1001.86
2019-03-25T11:52:37.453Z,1001.88
2019-03-25T11:53:37.472Z,1001.92
2019-03-25T11:54:37.489Z,1001.9
2019-03-25T11:55:37.511Z,1001.89
2019-03-25T11:56:37.528Z,1001.91
2019-03-25T11:57:37.549Z,1001.9
2019-03-25T11:58:37.565Z,1001.93
2019-03-25T11:59:37.586Z,1001.99
2019-03-25T12:00:37.603Z,1002.02
2019-03-25T12:01:37.625Z,1002.03
2019-03-25T12:02:37.644Z,1002.04
2019-03-25T12:03:37.659Z,1002.01
2019-03-25T12:04:37.678Z,1002.05
2019-03-25T12:05:37.697Z,1002.03
2019-03-25T12:06:37.716Z,1002.02
2019-03-25T12:07:37.734Z,1002
2019-03-25T12:08:37.753Z,1001.97